createdAt,value
2023-05-13T00:02:18.625Z,10.50
2023-05-13T00:04:46.386Z,9.77
2023-05-13T00:07:14.150Z,9.48
2023-05-13T00:09:41.828Z,9.55
2023-05-13T00:12:08.409Z,9.90
2023-05-13T00:14:36.842Z,10.20
2023-05-13T00:17:04.906Z,10.18
2023-05-13T00:19:31.966Z,9.75
2023-05-13T00:21:58.491Z,9.48
2023-05-13T00:24:26.533Z,9.85
2023-05-13T00:26:54.304Z,10.23
2023-05-13T00:29:22.073Z,9.32
2023-05-13T00:31:50.094Z,8.95
2023-05-13T00:34:18.578Z,8.85
2023-05-13T00:36:48.810Z,8.85
2023-05-13T00:39:16.799Z,8.98
2023-05-13T00:41:44.636Z,8.80
2023-05-13T00:44:14.466Z,9.15
2023-05-13T00:46:42.552Z,8.25
2023-05-13T00:49:10.759Z,8.25
2023-05-13T00:51:38.985Z,8.55
2023-05-13T00:54:05.571Z,8.05
2023-05-13T00:56:32.118Z,8.48
2023-05-13T00:58:59.840Z,8.07
2023-05-13T01:01:32.319Z,8.18
2023-05-13T01:04:37.533Z,9.05
2023-05-13T01:07:27.036Z,7.50
2023-05-13T01:10:08.803Z,8.15
2023-05-13T01:12:36.539Z,7.32
2023-05-13T01:15:05.993Z,7.53
2023-05-13T01:17:44.960Z,7.68
2023-05-13T01:20:14.948Z,7.60
2023-05-13T01:22:42.694Z,7.88
2023-05-13T01:25:10.556Z,7.60
2023-05-13T01:27:38.273Z,6.82
2023-05-13T01:30:07.049Z,7.47
2023-05-13T01:32:37.590Z,7.50
2023-05-13T01:35:05.905Z,6.90
2023-05-13T01:37:33.516Z,7.88
2023-05-13T01:40:01.133Z,7.45
2023-05-13T01:42:30.056Z,7.10
2023-05-13T01:44:56.532Z,7.18
2023-05-13T01:47:23.993Z,7.32
2023-05-13T01:49:50.566Z,7.47
2023-05-13T01:52:18.520Z,7.57
2023-05-13T01:54:44.958Z,7.38
2023-05-13T01:57:11.740Z,7.10
2023-05-13T01:59:39.918Z,6.85
2023-05-13T02:02:07.311Z,7.05
2023-05-13T02:04:34.928Z,8.10
2023-05-13T02:07:02.651Z,7.32
2023-05-13T02:09:30.661Z,6.97
2023-05-13T02:11:58.552Z,6.80
2023-05-13T02:14:26.503Z,7.15
2023-05-13T02:16:54.427Z,7.15
2023-05-13T02:19:25.026Z,7.05
2023-05-13T02:21:53.070Z,7.07
2023-05-13T02:24:21.149Z,7.55
2023-05-13T02:26:48.926Z,7.22
2023-05-13T02:29:16.833Z,6.68
2023-05-13T02:31:44.351Z,6.60
2023-05-13T02:34:10.975Z,6.60
2023-05-13T02:36:41.033Z,6.15
2023-05-13T02:39:11.344Z,7.22
2023-05-13T02:41:39.193Z,6.32
2023-05-13T02:44:06.991Z,6.93
2023-05-13T02:46:35.674Z,6.45
2023-05-13T02:49:03.513Z,6.93
2023-05-13T02:51:30.284Z,7.07
2023-05-13T02:53:56.698Z,7.13
2023-05-13T02:56:26.918Z,6.60
2023-05-13T02:58:54.951Z,6.63
2023-05-13T03:01:26.033Z,5.82
2023-05-13T03:03:53.655Z,6.90
2023-05-13T03:06:24.015Z,6.45
2023-05-13T03:08:54.674Z,6.18
2023-05-13T03:11:23.030Z,6.38
2023-05-13T03:13:49.933Z,6.35
2023-05-13T03:16:25.575Z,6.32
2023-05-13T03:18:54.628Z,6.35
2023-05-13T03:21:25.407Z,6.57
2023-05-13T03:23:51.906Z,6.22
2023-05-13T03:26:20.078Z,6.03
2023-05-13T03:28:47.836Z,6.45
2023-05-13T03:31:15.698Z,6.40
2023-05-13T03:33:45.719Z,6.97
2023-05-13T03:36:12.253Z,6.75
2023-05-13T03:38:38.767Z,6.65
2023-05-13T03:41:06.608Z,6.57
2023-05-13T03:43:34.534Z,6.63
2023-05-13T03:46:01.332Z,6.07
2023-05-13T03:48:29.376Z,6.72
2023-05-13T03:50:57.519Z,7.13
2023-05-13T03:53:27.531Z,8.23
2023-05-13T03:56:02.728Z,6.72
2023-05-13T03:58:29.626Z,6.43
2023-05-13T04:00:57.255Z,7.13
2023-05-13T04:03:25.126Z,6.50
2023-05-13T04:05:53.140Z,6.47
2023-05-13T04:08:19.685Z,5.78
2023-05-13T04:10:47.206Z,6.88
2023-05-13T04:13:13.683Z,6.50
2023-05-13T04:15:41.561Z,7.10
2023-05-13T04:18:09.643Z,7.07
2023-05-13T04:20:40.200Z,5.85
2023-05-13T04:23:07.872Z,6.22
2023-05-13T04:25:36.637Z,6.35
2023-05-13T04:28:03.136Z,6.57
2023-05-13T04:30:31.195Z,7.65
2023-05-13T04:32:59.363Z,7.38
2023-05-13T04:35:27.267Z,7.18
2023-05-13T04:37:53.858Z,6.40
2023-05-13T04:40:21.839Z,6.93
2023-05-13T04:42:54.927Z,6.70
2023-05-13T04:45:21.639Z,6.85
2023-05-13T04:47:49.424Z,7.35
2023-05-13T04:50:18.109Z,6.43
2023-05-13T04:52:47.315Z,5.78
2023-05-13T04:55:15.021Z,6.75
2023-05-13T04:57:45.175Z,6.57
2023-05-13T05:00:13.043Z,6.25
2023-05-13T05:02:40.746Z,6.30
2023-05-13T05:05:08.414Z,7.50
2023-05-13T05:07:40.724Z,8.13
2023-05-13T05:10:11.238Z,5.55
2023-05-13T05:12:38.817Z,6.15
2023-05-13T05:15:11.925Z,5.90
2023-05-13T05:17:38.853Z,5.40
2023-05-13T05:20:06.908Z,6.13
2023-05-13T05:22:35.390Z,5.65
2023-05-13T05:25:03.645Z,5.95
2023-05-13T05:27:31.275Z,5.88
2023-05-13T05:29:57.743Z,5.47
2023-05-13T05:32:25.681Z,5.03
2023-05-13T05:34:54.591Z,5.43
2023-05-13T05:37:21.261Z,4.72
2023-05-13T05:39:47.690Z,5.00
2023-05-13T05:42:14.246Z,5.50
2023-05-13T05:44:40.830Z,5.35
2023-05-13T05:47:07.333Z,5.53
2023-05-13T05:49:33.909Z,5.18
2023-05-13T05:52:00.507Z,5.43
2023-05-13T05:54:27.565Z,5.20
2023-05-13T05:56:54.119Z,4.43
2023-05-13T05:59:20.596Z,4.70
2023-05-13T06:01:47.125Z,5.38
2023-05-13T06:04:13.660Z,5.10
2023-05-13T06:06:40.543Z,5.18
2023-05-13T06:09:07.038Z,5.25
2023-05-13T06:11:33.441Z,4.97
2023-05-13T06:13:59.943Z,5.00
2023-05-13T06:16:26.552Z,5.05
2023-05-13T06:18:53.224Z,5.03
2023-05-13T06:21:19.873Z,4.10
2023-05-13T06:23:46.418Z,5.57
2023-05-13T06:26:14.101Z,4.63
2023-05-13T06:28:40.658Z,4.28
2023-05-13T06:31:08.384Z,5.07
2023-05-13T14:59:11.836Z,2.58
2023-05-13T15:01:38.737Z,2.33
2023-05-13T15:04:05.743Z,2.10
2023-05-13T15:06:32.750Z,2.03
2023-05-13T15:08:59.195Z,1.90
2023-05-13T15:11:27.204Z,1.90
2023-05-13T15:13:53.637Z,2.28
2023-05-13T15:16:20.127Z,2.28
2023-05-13T15:18:46.674Z,2.45
2023-05-13T15:21:13.797Z,2.08
2023-05-13T15:23:40.330Z,2.05
2023-05-13T15:26:06.810Z,2.08
2023-05-13T15:28:33.442Z,2.00
2023-05-13T15:31:00.041Z,2.30
2023-05-13T15:33:26.845Z,2.63
2023-05-13T15:35:53.387Z,3.00
2023-05-13T15:38:19.819Z,3.03
2023-05-13T15:40:47.495Z,3.20
2023-05-13T15:43:14.063Z,3.67
2023-05-13T15:45:40.570Z,3.38
2023-05-13T15:48:07.506Z,3.70
2023-05-13T15:50:34.049Z,3.88
2023-05-13T15:53:00.628Z,4.63
2023-05-13T15:55:27.124Z,4.68
2023-05-13T15:57:53.604Z,4.20
2023-05-13T16:00:20.225Z,4.07
2023-05-13T16:02:46.822Z,3.60
2023-05-13T16:05:15.383Z,3.50
2023-05-13T16:07:42.408Z,3.10
2023-05-13T16:10:09.064Z,2.85
2023-05-13T16:12:35.981Z,3.33
2023-05-13T16:15:03.997Z,3.30
2023-05-13T16:17:31.726Z,3.30
2023-05-13T16:19:58.369Z,4.22
2023-05-13T16:22:24.790Z,4.22
2023-05-13T16:24:51.193Z,4.32
2023-05-13T16:27:17.688Z,4.18
2023-05-13T16:29:44.144Z,3.95
2023-05-13T16:32:12.094Z,4.15
2023-05-13T16:34:38.612Z,4.75
2023-05-13T16:37:05.323Z,5.00
2023-05-13T16:39:32.131Z,4.18
2023-05-13T16:41:58.601Z,4.80
2023-05-13T18:07:45.011Z,4.75
2023-05-13T18:10:11.826Z,4.68
2023-05-13T18:12:38.526Z,4.28
2023-05-13T18:15:06.361Z,4.30
2023-05-13T18:17:33.228Z,4.32
2023-05-13T18:19:59.910Z,4.72
2023-05-13T18:22:26.553Z,4.20
2023-05-13T18:24:53.198Z,4.88
2023-05-13T18:27:19.875Z,4.55
2023-05-13T18:29:46.615Z,5.35
2023-05-13T18:32:13.310Z,4.47
2023-05-13T18:34:39.925Z,4.80
2023-05-13T18:37:06.576Z,4.43
2023-05-13T18:39:33.286Z,4.80
2023-05-13T18:41:59.947Z,4.40
2023-05-13T18:44:26.641Z,4.38
2023-05-13T18:46:53.354Z,4.97
2023-05-13T18:49:20.029Z,4.25
2023-05-13T18:51:46.776Z,5.30
2023-05-13T18:54:13.388Z,5.32
2023-05-13T18:56:40.035Z,4.60
2023-05-13T18:59:06.678Z,5.47
2023-05-13T19:01:33.394Z,5.32
2023-05-13T19:04:00.143Z,4.82
2023-05-13T19:06:26.889Z,4.47
2023-05-13T19:08:53.608Z,4.45
2023-05-13T19:11:20.215Z,4.82
2023-05-13T19:13:48.151Z,4.88
2023-05-13T19:16:15.535Z,5.30
2023-05-13T19:18:42.255Z,5.93
2023-05-13T19:21:08.924Z,7.28
2023-05-13T19:23:53.673Z,7.10
2023-05-13T19:26:20.788Z,6.30
2023-05-13T19:28:48.137Z,5.70
2023-05-13T19:31:14.908Z,4.43
2023-05-13T19:33:42.159Z,5.00
2023-05-13T19:36:10.450Z,4.45
2023-05-13T19:38:37.189Z,5.07
2023-05-13T19:41:03.815Z,4.80
2023-05-13T19:43:30.465Z,4.75
2023-05-13T19:45:57.626Z,4.38
2023-05-13T19:48:24.278Z,4.82
2023-05-13T19:50:53.557Z,4.75
2023-05-13T19:53:22.016Z,4.63
2023-05-13T19:55:48.619Z,4.60
2023-05-13T19:58:15.545Z,4.35
2023-05-13T20:00:44.052Z,4.07
2023-05-13T20:03:11.187Z,4.13
2023-05-13T20:05:40.944Z,4.72
2023-05-13T20:08:31.528Z,4.15
2023-05-13T20:10:58.071Z,5.50
2023-05-13T20:13:24.745Z,4.05
2023-05-13T20:15:51.878Z,3.75
2023-05-13T20:18:18.604Z,4.38
2023-05-13T20:20:47.061Z,3.95
2023-05-13T20:23:14.528Z,3.97
2023-05-13T20:25:41.678Z,3.33
2023-05-13T20:28:08.335Z,3.85
2023-05-13T20:30:35.040Z,4.07
2023-05-13T20:33:02.028Z,4.15
2023-05-13T20:35:28.872Z,3.65
2023-05-13T20:37:57.318Z,3.88
2023-05-13T20:40:24.615Z,3.63
2023-05-13T20:42:51.464Z,3.05
2023-05-13T20:45:18.254Z,3.20
2023-05-13T20:47:44.973Z,3.70
2023-05-13T20:50:12.092Z,3.47
2023-05-13T20:52:38.745Z,3.42
2023-05-13T20:55:06.106Z,4.43
2023-05-13T20:57:32.746Z,3.03
2023-05-13T20:59:59.352Z,3.40
2023-05-13T21:02:26.131Z,3.78
2023-05-13T21:04:52.798Z,3.80
2023-05-13T21:07:19.456Z,4.07
2023-05-13T21:09:46.124Z,3.30
2023-05-13T21:12:12.708Z,3.17
2023-05-13T21:14:39.303Z,2.67
2023-05-13T21:17:06.071Z,3.95
2023-05-13T21:19:32.957Z,3.60
2023-05-13T21:22:01.637Z,3.50
2023-05-13T21:24:28.581Z,3.30
2023-05-13T21:26:55.333Z,3.88
2023-05-13T21:29:21.913Z,3.20
2023-05-13T21:31:48.505Z,3.22
2023-05-13T21:34:15.139Z,3.25
2023-05-13T21:36:41.963Z,3.33
2023-05-13T21:39:10.464Z,3.72
2023-05-13T21:41:37.746Z,3.92
2023-05-13T21:44:04.483Z,3.45
2023-05-13T21:46:31.135Z,3.40
2023-05-13T21:49:00.000Z,3.50
2023-05-13T21:51:26.804Z,3.40
2023-05-13T21:53:53.465Z,3.05
2023-05-13T21:56:21.520Z,3.97
2023-05-13T21:58:49.482Z,3.78
2023-05-13T22:01:16.234Z,3.80
2023-05-13T22:03:42.909Z,4.25
2023-05-13T22:06:09.646Z,3.78
2023-05-13T22:08:36.315Z,3.83
2023-05-13T22:11:02.861Z,4.32
2023-05-13T22:13:29.425Z,4.10
2023-05-13T22:15:55.969Z,3.83
2023-05-13T22:18:23.661Z,4.70
2023-05-13T22:20:50.233Z,4.30
2023-05-13T22:23:16.728Z,3.90
2023-05-13T22:25:43.264Z,3.75
2023-05-13T22:28:09.729Z,3.65
2023-05-13T22:30:36.212Z,4.90
2023-05-13T22:33:02.754Z,4.43
2023-05-13T22:35:29.414Z,3.60
2023-05-13T22:37:55.929Z,4.25
2023-05-13T22:40:22.642Z,4.45
2023-05-13T22:42:49.255Z,4.78
2023-05-13T22:45:15.907Z,4.00
2023-05-13T22:47:42.456Z,4.72
2023-05-13T22:50:09.065Z,4.32
2023-05-13T22:52:35.573Z,4.55
2023-05-13T22:55:01.998Z,4.70
2023-05-13T22:57:28.526Z,4.82
2023-05-13T22:59:55.040Z,4.90
2023-05-13T23:02:21.620Z,5.47
2023-05-13T23:04:48.179Z,5.70
2023-05-13T23:07:14.758Z,5.93
2023-05-13T23:09:41.249Z,5.50
2023-05-13T23:12:08.021Z,5.97
2023-05-13T23:14:34.541Z,5.93
2023-05-13T23:17:01.406Z,5.85
2023-05-13T23:19:27.828Z,5.68
2023-05-13T23:21:54.309Z,6.82
2023-05-13T23:24:21.016Z,6.43
2023-05-13T23:26:48.623Z,5.50
2023-05-13T23:29:15.198Z,6.00
2023-05-13T23:31:41.717Z,5.28
2023-05-13T23:34:08.553Z,5.55
2023-05-13T23:36:35.363Z,5.53
2023-05-13T23:39:01.858Z,5.93
2023-05-13T23:41:28.714Z,7.30
2023-05-13T23:43:55.162Z,5.93
2023-05-13T23:46:21.716Z,5.97
2023-05-13T23:48:48.237Z,6.22
2023-05-13T23:51:14.689Z,6.47
2023-05-13T23:53:41.171Z,6.15
2023-05-13T23:56:07.787Z,6.07
2023-05-13T23:58:34.329Z,6.03
